KMGN

Harbor Springs Airport

Harbor Springs, Michigan, USA
METAR KMGN 110215Z AUTO 22010G17KT 10SM OVC022 01/M02 A2994 RMK AO2 T00081022
Observed Flight Rules
Dec-11 @ 02:15 UTC (20 minutes ago) Marginal Visual Flight Rules
Wind Visibility Clouds
220° at 10 knots
 Gusting to 17 knots
10 miles
  • Overcast at 2,200' AGL
Temperatures Readings
Current 1°C / 34°F
Dewpoint -2°C / 28°F
Humidity 81%
Altimeter 29.94" Hg
Pressure 1014 hPa
Elevation 209
METAR KMGN 110215Z AUTO 22010G17KT 10SM OVC022 01/M02 A2994 RMK AO2 T00081022
Observed Flight Rules
Dec-11 @ 02:15 UTC
(20 minutes ago)
MVFR
Wind Visibility
220° at 10 knots
 Gusting to 17 knots
10 miles
Clouds
  • Overcast at 2,200' AGL
Temperature Dewpoint
1°C / 34°F -2°C / 28°F
Humidity Altimeter Pressure
81% 29.94" Hg 1014 hPa